Terminal Aerodrome Forecast
Issued by NWS

Home | Current Version | Previous Version | Text Only | Print | Product List | Glossary On
Versions: 1 2 3 4 5 6 7 8 9 10 11 12 13 14 15 16 17 18 19 20
719
FTUS46 KEKA 231131
TAFCEC
TAF
KCEC 231131Z 2312/2412 05006KT P6SM SKC
     FM231900 35010KT P6SM SKC
     FM240100 02005KT P6SM SCT080 BKN250
     FM240600 13006KT P6SM VCSH SCT025 BKN060 OVC200
     FM240900 15008KT P6SM -RA BKN025 OVC050=

USA.gov is the U.S. government's official web portal to all federal, state and local government web resources and services.